createdAt,value
2023-05-13T00:03:38.330Z,99.90
2023-05-13T01:04:49.215Z,99.90
2023-05-13T01:07:28.640Z,99.90
2023-05-13T01:10:06.576Z,99.90
2023-05-13T01:12:39.058Z,99.90
2023-05-13T01:15:11.913Z,99.90
2023-05-13T01:17:47.532Z,99.90
2023-05-13T09:21:26.667Z,94.60
2023-05-13T09:24:07.897Z,93.70
2023-05-13T09:52:20.346Z,90.40
2023-05-13T09:54:50.396Z,90.70
2023-05-13T10:10:05.651Z,88.30
2023-05-13T10:27:49.434Z,91.80
2023-05-13T10:30:26.491Z,92.10
2023-05-13T10:43:37.721Z,69.10
2023-05-13T10:46:09.005Z,71.30
2023-05-13T10:48:51.227Z,73.30
2023-05-13T10:51:25.575Z,70.80
2023-05-13T10:53:58.160Z,70.00
2023-05-13T10:56:31.216Z,68.20
2023-05-13T10:59:02.665Z,67.70
2023-05-13T11:01:34.103Z,67.50
2023-05-13T11:04:08.730Z,66.80
2023-05-13T11:06:42.124Z,66.20
2023-05-13T11:09:16.092Z,64.80
2023-05-13T11:11:50.704Z,67.20
2023-05-13T11:14:22.192Z,65.50
2023-05-13T11:16:56.490Z,65.50
2023-05-13T11:19:30.318Z,63.70
2023-05-13T11:22:07.920Z,68.50
2023-05-13T11:24:38.086Z,70.80
2023-05-13T11:27:18.313Z,73.00
2023-05-13T11:29:52.847Z,75.40
2023-05-13T11:32:52.996Z,76.60
2023-05-13T11:35:27.688Z,74.80
2023-05-13T11:38:00.127Z,81.10
2023-05-13T11:40:32.174Z,81.90
2023-05-13T11:43:05.253Z,78.10
2023-05-13T11:45:37.795Z,81.90
2023-05-13T11:48:22.344Z,84.40
2023-05-13T11:50:55.571Z,86.40
2023-05-13T11:53:25.809Z,87.60
2023-05-13T11:55:55.991Z,86.50
2023-05-13T11:58:26.088Z,82.80
2023-05-13T12:00:57.675Z,85.90
2023-05-13T12:03:30.820Z,86.70
2023-05-13T12:06:08.087Z,85.90
2023-05-13T12:08:38.340Z,87.10
2023-05-13T12:11:13.266Z,87.00
2023-05-13T12:13:44.706Z,89.30
2023-05-13T12:16:15.102Z,86.30
2023-05-13T12:18:45.301Z,87.60
2023-05-13T12:21:24.086Z,86.60
2023-05-13T12:23:54.227Z,87.70
2023-05-13T12:26:24.112Z,90.00
2023-05-13T12:28:59.134Z,90.00
2023-05-13T12:31:29.606Z,90.30
2023-05-13T12:33:59.827Z,89.70
2023-05-13T12:36:36.492Z,91.50
2023-05-13T12:39:09.228Z,92.00
2023-05-13T12:41:40.776Z,92.50
2023-05-13T12:44:12.588Z,91.80
2023-05-13T12:46:52.941Z,91.90
2023-05-13T12:49:23.702Z,90.70
2023-05-13T12:51:57.085Z,91.00
2023-05-13T12:54:27.223Z,91.00
2023-05-13T12:56:57.318Z,90.60
2023-05-13T12:59:29.620Z,90.90
2023-05-13T13:01:59.861Z,91.70
2023-05-13T13:04:30.007Z,92.00
2023-05-13T13:07:03.064Z,92.20
2023-05-13T13:09:33.188Z,93.00
2023-05-13T13:12:03.300Z,91.90
2023-05-13T13:14:33.441Z,92.40
2023-05-13T13:17:03.314Z,92.30
2023-05-13T13:19:33.134Z,92.60
2023-05-13T13:22:05.881Z,93.00
2023-05-13T13:24:36.047Z,92.40
2023-05-13T13:27:06.028Z,92.70
2023-05-13T13:29:36.296Z,93.90
2023-05-13T13:39:41.579Z,93.30
2023-05-13T13:42:11.690Z,93.40
2023-05-13T13:44:41.762Z,95.40
2023-05-13T13:47:12.922Z,95.50
2023-05-13T13:54:48.982Z,95.20
2023-05-13T13:57:19.150Z,93.70
2023-05-13T13:59:49.242Z,94.00
2023-05-13T14:02:19.909Z,94.20
2023-05-13T14:47:50.427Z,84.00
2023-05-13T14:50:20.838Z,84.90
2023-05-13T14:52:53.870Z,88.50
2023-05-13T14:55:24.096Z,90.50
2023-05-13T14:57:54.239Z,90.90
2023-05-13T15:00:24.588Z,90.60
2023-05-13T15:02:54.886Z,90.10
2023-05-13T15:05:26.531Z,90.50
2023-05-13T21:35:36.924Z,99.90
2023-05-13T21:40:42.633Z,99.90
2023-05-13T21:43:13.113Z,99.90
2023-05-13T21:45:43.308Z,99.90
2023-05-13T21:48:13.441Z,99.90
2023-05-13T21:50:46.249Z,99.90
2023-05-13T21:53:16.325Z,99.90
2023-05-13T21:55:47.530Z,99.90
2023-05-13T21:58:18.156Z,99.90
2023-05-13T22:03:18.740Z,99.90
2023-05-13T22:05:51.516Z,99.90
2023-05-13T22:10:52.391Z,99.90
2023-05-13T22:13:22.996Z,99.90
2023-05-13T22:15:53.261Z,99.90
2023-05-13T22:20:56.623Z,99.90
2023-05-13T22:23:26.797Z,99.90
2023-05-13T22:25:56.888Z,99.90
2023-05-13T22:28:26.962Z,99.90
2023-05-13T22:33:27.637Z,99.90
2023-05-13T22:36:00.352Z,99.90
2023-05-13T22:38:30.406Z,99.90
2023-05-13T22:43:30.972Z,99.90
2023-05-13T22:46:01.160Z,99.90
2023-05-13T22:48:31.333Z,99.90
2023-05-13T22:51:04.145Z,99.90
2023-05-13T22:53:34.515Z,99.90
2023-05-13T22:56:04.706Z,99.90
2023-05-13T22:58:34.753Z,99.90
2023-05-13T23:01:04.880Z,99.90
2023-05-13T23:03:34.937Z,99.90
2023-05-13T23:06:08.049Z,99.90
2023-05-13T23:08:38.108Z,99.90
2023-05-13T23:11:08.520Z,99.90
2023-05-13T23:13:38.637Z,99.90
2023-05-13T23:16:09.575Z,99.90
2023-05-13T23:18:40.156Z,99.90
2023-05-13T23:21:12.958Z,99.90
2023-05-13T23:28:44.089Z,99.90
2023-05-13T23:31:14.276Z,99.90
2023-05-13T23:33:44.440Z,99.90
2023-05-13T23:36:17.322Z,99.90
2023-05-13T23:38:47.404Z,99.90
2023-05-13T23:41:17.532Z,99.90
2023-05-13T23:46:18.025Z,99.90
2023-05-13T23:48:48.206Z,99.90
2023-05-13T23:51:21.173Z,99.90
2023-05-13T23:53:52.037Z,99.90
2023-05-13T23:56:22.427Z,99.90
2023-05-13T23:58:52.490Z,99.90
